Avon Park, Florida
Current Conditions -  °F | °C
As of 7:55 PM on Saturday 25 Oct 2014 (Local Time) from KBOW Reporting Station
Clear Clear  
Wind Chill: 70°   Ceiling: Unl
Heat Index: 70°   Visibility: 10mi
Dew Point: 52°   Wind: 5mph
Humidity: 53%   Direction: 350°N
Pressure: 29.98"   Gusts: NA
Location:  27.6°N, 81.51°W
Report Text: KBOW 252355Z AUTO 35004KT 10SM CLR 21/11 A2998 RMK AO2
Loading
Personal Weather Stations






























Interactive Weather Map
Tropical Storm Tracking
New forecast layout! Learn more

10-Day Weather Forecast

Advertisements
Track Severe Weather on mobile